Time;durP1;ratioP1;P1;durP2;ratioP2;P2;SDS_P1;SDS_P2;PMS_P1;PMS_P2;Temp;Humidity;BMP_temperature;BMP_pressure;BME280_temperature;BME280_humidity;BME280_pressure;Samples;Min_cycle;Max_cycle;Signal;HPM_P1;HPM_P2
2022/08/04 00:04:55;;;;;;;3.80;3.50;;;;;;;20.09;63.79;96955.66;10558952;28;20048;-58
2022/08/04 00:10:17;;;;;;;2.92;2.70;;;;;;;20.08;63.75;96951.41;10528990;28;20051;-59
2022/08/04 00:15:36;;;;;;;5.13;3.45;;;;;;;20.07;63.73;96952.50;10547451;28;20044;-57
2022/08/04 00:20:59;;;;;;;3.63;3.33;;;;;;;20.05;63.72;96957.44;10577245;28;20068;-58
2022/08/04 00:26:22;;;;;;;4.05;3.50;;;;;;;20.04;63.50;96958.56;10595648;27;20524;-58
2022/08/04 00:31:42;;;;;;;4.55;3.25;;;;;;;20.02;63.41;96967.00;10601092;27;20458;-58
2022/08/04 00:37:06;;;;;;;3.67;3.38;;;;;;;20.01;63.19;96961.91;10599410;27;20395;-58
2022/08/04 00:42:37;;;;;;;4.10;3.70;;;;;;;20.01;63.02;96965.41;10605510;27;20460;-58
2022/08/04 00:48:20;;;;;;;4.32;3.90;;;;;;;19.99;62.98;96956.81;10614306;27;20104;-58
2022/08/04 00:53:49;;;;;;;4.65;3.90;;;;;;;19.99;62.80;96966.84;10611859;27;20128;-58
2022/08/04 00:59:33;;;;;;;6.53;3.65;;;;;;;19.98;62.71;96966.06;10640220;27;20039;-58
2022/08/04 01:05:26;;;;;;;5.10;3.30;;;;;;;19.96;62.25;96971.00;10609579;27;20047;-57
2022/08/04 01:10:50;;;;;;;3.70;3.40;;;;;;;19.97;62.08;96977.19;10639859;27;20043;-58
2022/08/04 01:16:15;;;;;;;3.75;3.17;;;;;;;19.97;62.00;96977.97;10625531;27;20062;-57
2022/08/04 01:21:41;;;;;;;3.42;3.13;;;;;;;19.96;61.73;96973.69;10615890;27;20058;-58
2022/08/04 01:27:34;;;;;;;3.00;2.80;;;;;;;19.95;61.73;96972.91;10624891;27;20043;-57
2022/08/04 01:33:01;;;;;;;3.97;3.10;;;;;;;19.95;61.59;96970.22;10605241;27;20059;-58
2022/08/04 01:38:28;;;;;;;2.95;2.75;;;;;;;19.94;61.36;96971.31;10611689;27;20047;-58
2022/08/04 01:43:47;;;;;;;3.08;2.75;;;;;;;19.94;61.32;96975.94;10638523;27;20099;-58
2022/08/04 01:49:09;;;;;;;5.15;2.92;;;;;;;19.93;61.08;96968.94;10624466;27;20379;-58
2022/08/04 01:54:29;;;;;;;3.58;2.70;;;;;;;19.92;61.07;96968.13;10623180;27;20058;-57
2022/08/04 01:59:50;;;;;;;3.58;2.50;;;;;;;19.92;60.94;96970.84;10598547;27;20039;-58
2022/08/04 02:05:11;;;;;;;3.72;2.92;;;;;;;19.92;60.88;96976.25;10623717;27;20051;-58
2022/08/04 02:10:53;;;;;;;3.10;2.90;;;;;;;19.90;60.52;96966.88;10620918;27;20055;-58
2022/08/04 02:16:20;;;;;;;3.33;2.70;;;;;;;19.88;60.62;96975.31;10599472;27;20055;-58
2022/08/04 02:21:39;;;;;;;2.85;2.65;;;;;;;19.87;60.44;96970.22;10607909;27;20115;-58
2022/08/04 02:27:02;;;;;;;3.63;2.75;;;;;;;19.86;60.48;96971.34;10596875;27;20054;-57
2022/08/04 02:32:27;;;;;;;3.63;2.65;;;;;;;19.86;60.20;96965.94;10595211;27;20039;-58
2022/08/04 02:37:48;;;;;;;2.67;2.47;;;;;;;19.84;60.13;96966.25;10636400;27;20509;-58
2022/08/04 02:43:09;;;;;;;3.15;2.53;;;;;;;19.83;60.10;96966.56;10607139;27;20112;-58
2022/08/04 02:48:30;;;;;;;2.80;2.60;;;;;;;19.82;60.09;96957.66;10636142;27;20039;-58
2022/08/04 02:53:54;;;;;;;2.88;2.67;;;;;;;19.83;60.06;96964.66;10619068;27;20051;-58
2022/08/04 02:59:15;;;;;;;2.75;2.55;;;;;;;19.83;59.98;96956.53;10605774;27;20032;-55
2022/08/04 03:04:50;;;;;;;4.85;2.50;;;;;;;19.85;59.83;96953.53;10588721;27;20048;-57
2022/08/04 03:10:28;;;;;;;4.78;2.50;;;;;;;19.86;59.62;96957.81;10616581;27;20043;-58
2022/08/04 03:15:50;;;;;;;2.83;2.60;;;;;;;19.85;59.53;96962.41;10622689;27;20518;-58
2022/08/04 03:21:22;;;;;;;3.53;2.60;;;;;;;19.84;59.53;96955.44;10619997;27;20285;-58
2022/08/04 03:27:02;;;;;;;4.32;2.67;;;;;;;19.85;59.55;96956.22;10520722;22;20055;-80
2022/08/04 03:32:40;;;;;;;3.10;2.40;;;;;;;19.83;59.44;96961.94;10493721;28;20094;-79
2022/08/04 03:38:18;;;;;;;2.83;2.55;;;;;;;19.81;59.41;96956.06;10483690;28;20486;-80
2022/08/04 03:43:41;;;;;;;3.13;2.45;;;;;;;19.82;59.51;96954.19;10506265;28;20051;-80
2022/08/04 03:49:07;;;;;;;2.75;2.55;;;;;;;19.83;60.09;96951.13;10507604;28;20056;-80
2022/08/04 03:54:44;;;;;;;2.72;2.53;;;;;;;19.86;60.35;96965.94;10506906;28;20045;-80
2022/08/04 04:00:10;;;;;;;4.63;2.67;;;;;;;19.88;60.65;96956.38;10490404;28;20561;-80
2022/08/04 04:05:40;;;;;;;2.53;2.33;;;;;;;19.91;60.85;96957.63;10501643;28;20720;-79
2022/08/04 04:11:22;;;;;;;4.18;2.40;;;;;;;19.84;60.32;96960.06;10487183;28;20044;-78
2022/08/04 04:17:05;;;;;;;3.08;2.58;;;;;;;19.66;60.82;96964.66;10483162;28;20094;-78
2022/08/04 04:22:49;;;;;;;5.30;2.70;;;;;;;19.52;61.55;96956.72;10473709;28;20037;-79
2022/08/04 04:28:42;;;;;;;2.72;2.42;;;;;;;19.52;61.68;96957.53;10494791;28;20082;-78
2022/08/04 04:34:07;;;;;;;3.00;2.70;;;;;;;19.47;62.10;96960.41;10505751;28;20097;-82
2022/08/04 04:39:58;;;;;;;3.55;2.55;;;;;;;19.49;61.97;96965.50;10473149;28;20115;-79
2022/08/04 04:45:17;;;;;;;2.72;2.53;;;;;;;19.58;61.90;96970.88;10460836;28;20102;-79
2022/08/04 04:50:55;;;;;;;3.17;2.70;;;;;;;19.66;61.77;96978.97;10513727;28;20061;-79
2022/08/04 04:56:40;;;;;;;3.28;2.97;;;;;;;19.71;61.66;96980.72;10456886;28;20044;-79
2022/08/04 05:02:34;;;;;;;4.80;2.90;;;;;;;19.76;61.58;96977.88;10471494;28;20036;-79
2022/08/04 05:08:38;;;;;;;5.45;2.92;;;;;;;19.79;61.58;96982.63;10498455;28;20048;-79
2022/08/04 05:14:02;;;;;;;3.30;2.85;;;;;;;19.82;61.58;96978.50;10513583;28;20040;-79
2022/08/04 05:19:28;;;;;;;3.28;2.97;;;;;;;19.83;61.65;96975.47;10484390;28;20376;-79
2022/08/04 05:24:54;;;;;;;3.08;2.88;;;;;;;19.84;61.69;96979.78;10504794;28;20055;-79
2022/08/04 05:30:14;;;;;;;3.30;3.00;;;;;;;19.85;61.74;96981.34;10498013;28;20043;-79
2022/08/04 05:35:40;;;;;;;3.38;2.80;;;;;;;19.86;61.76;96974.84;10485754;28;20044;-79
2022/08/04 05:41:00;;;;;;;5.10;3.13;;;;;;;19.86;61.93;96979.47;10511169;28;20479;-79
2022/08/04 05:46:20;;;;;;;4.13;3.03;;;;;;;19.87;61.90;96981.81;10491732;28;20036;-79
2022/08/04 05:51:40;;;;;;;3.33;2.90;;;;;;;19.87;61.88;96979.13;10488853;28;20090;-79
2022/08/04 05:57:03;;;;;;;3.38;3.00;;;;;;;19.89;62.11;96984.19;10488117;28;20040;-78
2022/08/04 06:07:53;;;;;;;4.50;2.70;;;;;;;19.89;62.05;96981.50;11440197;23;20061;-52
2022/08/04 06:13:16;;;;;;;3.60;2.90;;;;;;;19.92;62.13;96989.78;10254603;28;20110;-52
2022/08/04 06:18:37;;;;;;;4.00;2.90;;;;;;;19.91;62.14;96990.88;10267074;28;20039;-51
2022/08/04 06:23:58;;;;;;;3.80;2.83;;;;;;;19.92;62.19;96994.38;10239443;28;20057;-52
2022/08/04 06:29:52;;;;;;;4.70;3.03;;;;;;;19.91;62.22;96988.16;10239553;29;20058;-51
2022/08/04 06:35:05;;;;;;;5.47;2.67;;;;;;;19.90;62.28;96986.59;10254075;29;20058;-51
2022/08/04 06:40:26;;;;;;;3.05;2.80;;;;;;;19.91;62.45;96985.47;10250840;29;20067;-51
2022/08/04 06:45:46;;;;;;;3.00;2.63;;;;;;;19.92;62.50;96995.19;10259687;28;20054;-52
2022/08/04 06:51:06;;;;;;;3.30;2.63;;;;;;;19.93;62.42;96985.16;10253803;29;20450;-51
2022/08/04 06:56:26;;;;;;;4.38;2.83;;;;;;;19.92;62.59;96987.06;10243306;29;20047;-52
2022/08/04 07:01:46;;;;;;;3.05;2.72;;;;;;;19.93;62.58;96983.25;10251588;28;20065;-52
2022/08/04 07:07:05;;;;;;;3.25;2.95;;;;;;;19.93;62.64;96979.75;10243232;28;20059;-50
2022/08/04 07:12:25;;;;;;;2.72;2.50;;;;;;;19.94;62.64;96981.34;10238654;29;20098;-51
2022/08/04 07:17:45;;;;;;;2.92;2.60;;;;;;;19.94;62.66;96992.94;10252758;29;20067;-52
2022/08/04 07:23:05;;;;;;;3.50;3.00;;;;;;;19.94;62.81;96987.53;10265384;28;20406;-51
2022/08/04 07:28:27;;;;;;;3.03;2.72;;;;;;;19.94;62.83;96990.25;10260288;28;20466;-51
2022/08/04 07:33:46;;;;;;;3.38;2.65;;;;;;;19.95;62.92;96989.13;10255119;28;20059;-51
2022/08/04 07:39:06;;;;;;;2.92;2.55;;;;;;;19.97;62.93;96991.50;10257743;28;20044;-51
2022/08/04 07:44:25;;;;;;;2.70;2.50;;;;;;;19.97;62.93;96985.31;10249997;29;20062;-50
2022/08/04 07:49:45;;;;;;;4.32;2.75;;;;;;;19.97;63.03;96988.00;10260439;29;20066;-51
2022/08/04 07:55:05;;;;;;;3.03;2.72;;;;;;;19.96;62.92;96987.22;10256558;28;20415;-51
2022/08/04 08:00:25;;;;;;;3.42;2.78;;;;;;;19.95;63.01;96978.31;10244709;29;20498;-52
2022/08/04 08:05:45;;;;;;;3.55;2.58;;;;;;;19.98;63.08;96981.50;10259585;28;20059;-50
2022/08/04 08:11:06;;;;;;;3.22;2.53;;;;;;;19.97;63.10;96986.09;10255380;29;20055;-50
2022/08/04 08:16:26;;;;;;;2.75;2.40;;;;;;;19.97;63.05;96975.28;10259328;28;20062;-51
2022/08/04 08:21:48;;;;;;;2.55;2.35;;;;;;;19.98;63.03;96981.50;10275377;28;20054;-50
2022/08/04 08:27:07;;;;;;;2.60;2.40;;;;;;;19.99;63.19;96983.06;10262081;28;20060;-50
2022/08/04 08:32:27;;;;;;;2.40;2.20;;;;;;;19.99;63.15;96980.38;10258949;28;20063;-51
2022/08/04 08:37:57;;;;;;;2.40;2.20;;;;;;;19.99;63.15;96983.84;10244569;28;20046;-52
2022/08/04 08:43:45;;;;;;;2.90;2.70;;;;;;;19.99;63.26;96978.44;10243309;29;20055;-51
2022/08/04 08:49:33;;;;;;;2.93;2.30;;;;;;;20.00;63.15;96988.16;10243701;29;20051;-51
2022/08/04 08:55:08;;;;;;;3.13;2.30;;;;;;;20.00;63.20;96980.03;10244032;29;20529;-50
2022/08/04 09:00:41;;;;;;;2.45;2.25;;;;;;;20.00;63.18;96976.56;10257850;28;20118;-49
2022/08/04 09:06:35;;;;;;;2.78;2.50;;;;;;;20.01;63.21;96978.91;10242979;28;20110;-51
2022/08/04 09:11:57;;;;;;;3.72;2.45;;;;;;;20.00;63.28;96976.56;10246667;29;20077;-50
2022/08/04 09:17:26;;;;;;;2.42;2.22;;;;;;;20.03;63.10;96984.00;10256807;28;20051;-51
2022/08/04 09:22:53;;;;;;;3.15;2.00;;;;;;;20.02;63.26;96975.09;10242487;28;20482;-51
2022/08/04 09:28:57;;;;;;;4.60;2.50;;;;;;;20.03;63.42;96970.50;10242543;29;20086;-50
2022/08/04 09:34:33;;;;;;;10.25;4.40;;;;;;;20.05;63.58;96966.38;10256389;29;20059;-50
2022/08/04 09:40:14;;;;;;;9.10;4.32;;;;;;;20.06;64.05;96967.16;10254230;28;20542;-49
2022/08/04 09:45:40;;;;;;;9.25;4.03;;;;;;;20.07;64.56;96963.31;10254066;28;20043;-51
2022/08/04 09:51:02;;;;;;;7.85;4.03;;;;;;;20.09;65.17;96951.06;10253761;28;20430;-52
2022/08/04 09:56:31;;;;;;;20.38;6.53;;;;;;;20.09;65.40;96950.25;10254696;28;20055;-51
2022/08/04 10:01:54;;;;;;;55.20;16.25;;;;;;;20.10;65.38;96958.06;10241084;28;20078;-51
2022/08/04 10:07:32;;;;;;;50.60;13.43;;;;;;;20.11;65.42;96953.44;10230348;28;20047;-51
2022/08/04 10:13:13;;;;;;;37.35;11.73;;;;;;;20.11;65.46;96954.25;10240906;28;20055;-49
2022/08/04 10:18:38;;;;;;;39.90;11.43;;;;;;;20.11;65.55;96942.63;10254587;29;20054;-50
2022/08/04 10:24:44;;;;;;;42.97;12.07;;;;;;;20.12;65.98;96934.19;10254856;29;20071;-51
2022/08/04 10:30:11;;;;;;;35.63;9.98;;;;;;;20.12;66.11;96938.81;10243661;28;20051;-51
2022/08/04 10:35:45;;;;;;;32.03;10.23;;;;;;;20.14;66.08;96941.97;10240565;29;20439;-53
2022/08/04 10:41:26;;;;;;;26.55;8.23;;;;;;;20.18;66.23;96942.13;10253897;28;20058;-51
2022/08/04 10:46:56;;;;;;;20.98;7.63;;;;;;;20.18;66.32;96934.81;10253376;28;20467;-52
2022/08/04 10:52:24;;;;;;;28.70;7.25;;;;;;;20.19;66.45;96936.41;10225768;28;20059;-52
2022/08/04 10:57:49;;;;;;;29.43;8.37;;;;;;;20.19;66.53;96922.88;10239427;29;20055;-51
2022/08/04 11:03:20;;;;;;;42.33;12.63;;;;;;;20.20;66.59;96923.66;10266451;28;20071;-53
2022/08/04 11:08:44;;;;;;;32.33;12.07;;;;;;;20.21;66.92;96915.22;10252985;28;20078;-52
2022/08/04 11:14:07;;;;;;;38.13;11.25;;;;;;;20.23;67.15;96914.88;10252694;29;20051;-52
2022/08/04 11:19:42;;;;;;;35.63;12.07;;;;;;;20.23;67.38;96902.16;10252963;28;20055;-52
2022/08/04 11:25:13;;;;;;;33.53;10.80;;;;;;;20.23;67.34;96907.56;10242558;28;20074;-52
2022/08/04 11:30:57;;;;;;;27.50;10.60;;;;;;;20.25;67.30;96916.16;10252964;28;20051;-52
2022/08/04 11:36:36;;;;;;;27.20;9.45;;;;;;;20.25;67.43;96910.75;10264889;28;20491;-52
2022/08/04 11:42:19;;;;;;;21.63;9.20;;;;;;;20.26;67.33;96908.84;10237371;29;20106;-52
2022/08/04 11:47:41;;;;;;;8.77;3.95;;;;;;;20.29;66.96;96906.28;10254099;28;20043;-50
2022/08/04 11:53:01;;;;;;;5.32;3.10;;;;;;;20.46;63.96;96905.38;10252588;29;20109;-53
2022/08/04 11:58:21;;;;;;;4.57;2.83;;;;;;;20.38;61.17;96898.09;10251934;29;20514;-53
2022/08/04 12:04:02;;;;;;;3.30;3.00;;;;;;;20.28;61.44;96893.84;10252261;29;20065;-52
2022/08/04 12:09:47;;;;;;;3.85;2.80;;;;;;;20.28;61.99;96898.47;10257830;29;20387;-52
2022/08/04 12:15:12;;;;;;;4.90;2.63;;;;;;;20.28;62.17;96895.78;10252154;28;20078;-53
2022/08/04 12:20:40;;;;;;;5.10;2.88;;;;;;;20.30;62.54;96891.59;10253241;28;20479;-52
2022/08/04 12:26:04;;;;;;;3.57;2.60;;;;;;;20.31;62.43;96885.09;10244647;29;20047;-52
2022/08/04 12:31:53;;;;;;;9.65;2.20;;;;;;;20.30;62.56;96888.91;10259096;28;20129;-53
2022/08/04 12:37:34;;;;;;;8.80;2.80;;;;;;;20.30;62.53;96880.78;10257085;28;20518;-53
2022/08/04 12:43:00;;;;;;;6.28;2.55;;;;;;;20.30;62.67;96872.66;10258898;29;20055;-54
2022/08/04 12:48:21;;;;;;;11.68;2.30;;;;;;;20.30;62.46;96863.78;10257792;29;20043;-52
2022/08/04 13:45:52;;;;;;;10.50;4.53;;;;;;;20.39;62.53;96823.16;10093340;28;20054;-91
2022/08/04 13:51:29;;;;;;;13.40;5.65;;;;;;;20.37;62.39;96809.94;10285255;28;20130;-90
2022/08/04 13:56:54;;;;;;;14.48;5.28;;;;;;;20.38;62.11;96816.94;10254059;28;20062;-88
2022/08/04 14:02:32;;;;;;;14.35;5.07;;;;;;;20.38;62.17;96808.03;10252148;28;20498;-88
2022/08/04 14:08:24;;;;;;;11.15;4.53;;;;;;;20.39;61.39;96801.50;10269548;28;20061;-88
2022/08/04 14:13:44;;;;;;;11.90;4.80;;;;;;;20.39;61.33;96801.50;10228878;28;20150;-88
2022/08/04 14:19:03;;;;;;;10.23;4.53;;;;;;;20.40;61.10;96800.38;10251436;28;20148;-88
2022/08/04 14:24:28;;;;;;;10.75;4.30;;;;;;;20.40;60.97;96800.38;10255378;28;20118;-87
2022/08/04 14:29:48;;;;;;;10.88;4.32;;;;;;;20.39;60.49;96793.38;10225285;28;20059;-88
2022/08/04 14:35:12;;;;;;;8.50;3.95;;;;;;;20.40;60.32;96784.13;10252626;28;20491;-87
2022/08/04 14:40:37;;;;;;;8.40;4.65;;;;;;;20.39;59.80;96793.38;10254484;28;20054;-88
2022/08/04 14:46:06;;;;;;;9.30;4.57;;;;;;;20.39;59.79;96786.06;10242223;28;20133;-91
2022/08/04 14:51:26;;;;;;;9.80;4.20;;;;;;;20.40;59.74;96786.84;10277305;28;20239;-88
2022/08/04 14:56:57;;;;;;;10.57;3.90;;;;;;;20.41;60.05;96783.03;10242814;28;20129;-88
2022/08/04 15:02:17;;;;;;;8.80;3.95;;;;;;;20.41;60.11;96778.41;10271529;28;20051;-89
2022/08/04 15:08:46;;;;;;;;;;;;;;;;;;;;;
2022/08/04 15:14:41;;;;;;;7.45;3.38;;;;;;;20.42;60.43;96769.16;10250515;28;20074;-88
2022/08/04 15:20:01;;;;;;;5.68;3.13;;;;;;;20.43;60.41;96776.16;10255658;28;20063;-88
2022/08/04 15:25:21;;;;;;;5.70;3.25;;;;;;;20.43;60.26;96772.66;10266012;28;20130;-88
2022/08/04 15:30:41;;;;;;;5.40;3.13;;;;;;;20.43;60.51;96767.25;10237289;28;20062;-88
2022/08/04 15:36:37;;;;;;;8.38;3.67;;;;;;;20.44;60.39;96766.91;10266255;28;20155;-88
2022/08/04 15:42:03;;;;;;;5.57;3.15;;;;;;;20.45;60.28;96770.41;10216612;28;20084;-89
2022/08/04 15:47:26;;;;;;;5.90;3.43;;;;;;;20.45;60.52;96763.09;10251731;28;20414;-88
2022/08/04 15:52:55;;;;;;;7.90;3.20;;;;;;;20.47;60.57;96760.06;10267387;28;20051;-88
2022/08/04 15:58:15;;;;;;;5.68;2.85;;;;;;;20.48;60.68;96761.63;10269950;28;20051;-88
2022/08/04 16:03:35;;;;;;;7.13;3.28;;;;;;;20.48;60.94;96757.03;10257397;28;20055;-88
2022/08/04 16:09:03;;;;;;;3.95;2.65;;;;;;;20.47;61.06;96757.34;10273904;28;20055;-88
2022/08/04 16:14:31;;;;;;;7.55;3.25;;;;;;;20.47;61.11;96755.44;10272990;28;20054;-90
2022/08/04 16:20:07;;;;;;;6.25;3.38;;;;;;;20.47;61.14;96750.00;10255567;28;20086;-89
2022/08/04 16:25:47;;;;;;;5.63;3.00;;;;;;;20.48;61.36;96740.78;10270291;28;20055;-89
2022/08/04 16:31:11;;;;;;;4.68;2.67;;;;;;;20.50;61.27;96743.13;10256470;28;20422;-89
2022/08/04 16:36:54;;;;;;;5.68;2.90;;;;;;;20.49;61.56;96744.28;10244478;28;20090;-89
2022/08/04 16:42:29;;;;;;;7.70;2.65;;;;;;;20.48;61.54;96739.97;10286442;28;20388;-89
2022/08/04 16:47:50;;;;;;;5.32;3.10;;;;;;;20.49;61.71;96742.34;10271480;28;20086;-90
2022/08/04 16:53:14;;;;;;;5.45;2.70;;;;;;;20.49;61.82;96736.16;10298761;28;20079;-90
2022/08/04 16:58:35;;;;;;;8.85;3.47;;;;;;;20.50;61.93;96743.13;10234613;28;20058;-90
2022/08/04 17:03:55;;;;;;;4.57;2.85;;;;;;;20.50;61.80;96740.44;10255501;28;20130;-89
2022/08/04 17:09:16;;;;;;;4.90;2.50;;;;;;;20.50;61.95;96735.84;10255338;28;20525;-90
2022/08/04 17:14:36;;;;;;;4.55;2.85;;;;;;;20.49;61.92;96736.94;10269012;28;20063;-89
2022/08/04 17:19:56;;;;;;;4.47;2.70;;;;;;;20.50;61.89;96743.13;10255141;28;20137;-89
2022/08/04 17:25:16;;;;;;;3.38;2.58;;;;;;;20.51;62.13;96739.31;10287435;28;20135;-89
2022/08/04 17:30:36;;;;;;;4.70;2.70;;;;;;;20.51;62.00;96733.91;10297676;28;20133;-88
2022/08/04 17:35:58;;;;;;;4.38;2.65;;;;;;;20.52;62.14;96736.28;10257407;28;20144;-89
2022/08/04 17:41:18;;;;;;;3.55;2.60;;;;;;;20.52;62.06;96736.28;10233052;28;20495;-89
2022/08/04 17:46:41;;;;;;;5.47;2.85;;;;;;;20.53;62.11;96737.06;10252952;28;20073;-88
2022/08/04 17:52:00;;;;;;;5.07;2.42;;;;;;;20.53;61.93;96737.06;10260810;28;20061;-88
2022/08/04 17:57:21;;;;;;;3.53;2.28;;;;;;;20.53;62.19;96734.38;10248287;28;20158;-88
2022/08/04 18:02:51;;;;;;;4.88;2.78;;;;;;;20.53;62.16;96737.88;10239531;28;20426;-87
2022/08/04 18:08:11;;;;;;;5.03;2.75;;;;;;;20.55;62.18;96734.84;10279388;28;20054;-89
2022/08/04 18:13:31;;;;;;;3.70;2.50;;;;;;;20.53;62.37;96731.66;10267839;28;20082;-88
2022/08/04 18:19:14;;;;;;;4.20;2.80;;;;;;;20.54;62.01;96744.06;10263607;28;20090;-89
2022/08/04 18:24:34;;;;;;;3.40;2.47;;;;;;;20.54;62.36;96739.47;10279586;28;20414;-89
2022/08/04 18:29:54;;;;;;;4.18;2.80;;;;;;;20.54;62.35;96742.16;10267198;28;20878;-88
2022/08/04 18:35:15;;;;;;;4.03;2.75;;;;;;;20.55;62.29;96745.66;10251558;28;20146;-88
2022/08/04 18:40:35;;;;;;;3.83;2.50;;;;;;;20.55;62.52;96751.06;10267501;28;20059;-88
2022/08/04 18:45:55;;;;;;;3.38;2.50;;;;;;;20.56;62.40;96752.63;10238264;28;20146;-89
2022/08/04 18:51:17;;;;;;;3.78;2.33;;;;;;;20.56;62.50;96758.06;10251919;28;20077;-89
2022/08/04 18:56:37;;;;;;;3.60;2.65;;;;;;;20.56;62.56;96766.16;10251458;28;20388;-89
2022/08/04 19:01:56;;;;;;;3.42;2.33;;;;;;;20.56;62.50;96766.16;10242059;28;20057;-89
2022/08/04 19:07:16;;;;;;;3.10;2.45;;;;;;;20.56;62.55;96763.47;10251521;28;20079;-89
2022/08/04 19:12:36;;;;;;;3.33;2.60;;;;;;;20.56;62.67;96768.88;10263376;28;20101;-88
2022/08/04 19:17:56;;;;;;;3.13;2.30;;;;;;;20.56;62.61;96771.56;10236309;28;20414;-88
2022/08/04 19:23:16;;;;;;;3.38;2.40;;;;;;;20.56;62.58;96774.28;10271022;28;20528;-89
2022/08/04 19:28:36;;;;;;;3.65;2.30;;;;;;;20.56;62.46;96774.28;10251216;28;20088;-88
2022/08/04 19:33:56;;;;;;;2.75;2.47;;;;;;;20.56;62.47;96774.28;10278956;28;20046;-89
2022/08/04 19:39:16;;;;;;;3.47;2.50;;;;;;;20.57;62.57;96775.88;10251238;28;20130;-89
2022/08/04 19:44:36;;;;;;;3.63;2.50;;;;;;;20.58;62.63;96779.38;10249241;28;20482;-89
2022/08/04 19:49:56;;;;;;;3.95;2.53;;;;;;;20.58;62.60;96774.78;10271965;28;20089;-89
2022/08/04 19:55:15;;;;;;;5.25;2.53;;;;;;;20.58;62.71;96774.78;10265863;28;20063;-89
2022/08/04 20:00:37;;;;;;;3.17;2.30;;;;;;;20.59;62.57;96779.09;10242601;28;20082;-89
2022/08/04 20:05:57;;;;;;;3.40;2.47;;;;;;;20.60;62.66;96787.97;10241884;28;20138;-89
2022/08/04 20:11:19;;;;;;;3.33;2.30;;;;;;;20.59;62.69;96776.38;10248642;28;20078;-89
2022/08/04 20:16:39;;;;;;;3.20;2.33;;;;;;;20.61;62.63;96776.06;10264808;28;20426;-89
2022/08/04 20:21:59;;;;;;;2.83;2.33;;;;;;;20.60;62.58;96777.16;10275618;28;20077;-89
2022/08/04 20:27:19;;;;;;;3.17;2.22;;;;;;;20.59;62.74;96776.38;10262215;28;20059;-89
2022/08/04 20:32:39;;;;;;;2.97;2.20;;;;;;;20.60;62.77;96777.97;10249454;28;20494;-90
2022/08/04 20:37:59;;;;;;;3.05;2.20;;;;;;;20.59;62.64;96776.38;10248474;28;20050;-90
2022/08/04 20:43:20;;;;;;;4.10;2.60;;;;;;;20.60;62.68;96763.63;10278329;28;20074;-89
2022/08/04 20:48:40;;;;;;;2.92;2.20;;;;;;;20.59;62.75;96767.44;10250250;28;20089;-89
2022/08/04 20:54:00;;;;;;;3.10;2.20;;;;;;;20.59;62.70;96762.84;10245053;28;20082;-90
2022/08/04 20:59:20;;;;;;;3.22;2.55;;;;;;;20.60;62.80;96775.25;10251976;28;20055;-89
2022/08/04 21:04:41;;;;;;;2.55;2.17;;;;;;;20.61;62.67;96765.22;10269785;28;20125;-89
2022/08/04 21:10:01;;;;;;;2.63;2.25;;;;;;;20.59;62.58;96768.25;10242823;28;20129;-90
2022/08/04 21:15:24;;;;;;;2.97;2.30;;;;;;;20.59;62.52;96762.84;10254253;28;20071;-89
2022/08/04 21:20:44;;;;;;;2.80;2.30;;;;;;;20.61;62.75;96759.81;10278780;28;20154;-90
2022/08/04 21:26:04;;;;;;;3.17;2.10;;;;;;;20.60;62.57;96759.03;10290718;28;20050;-90
2022/08/04 21:31:24;;;;;;;2.22;1.80;;;;;;;20.61;62.62;96762.50;10254606;28;20410;-89
2022/08/04 21:36:44;;;;;;;2.92;2.13;;;;;;;20.61;62.79;96759.81;10258740;28;20074;-89
2022/08/04 21:42:05;;;;;;;2.38;2.10;;;;;;;20.60;62.69;96759.03;10241850;28;20062;-89
2022/08/04 21:47:25;;;;;;;2.45;1.83;;;;;;;20.60;62.69;96760.91;10229158;28;20133;-90
2022/08/04 21:52:45;;;;;;;2.25;1.98;;;;;;;20.61;62.71;96770.63;10262725;28;20070;-90
2022/08/04 21:58:05;;;;;;;2.63;2.15;;;;;;;20.61;62.86;96776.06;10271801;28;20506;-90
2022/08/04 22:03:25;;;;;;;3.58;2.10;;;;;;;20.61;62.54;96774.13;10266955;28;20499;-90
2022/08/04 22:08:45;;;;;;;2.55;1.88;;;;;;;20.61;62.62;96770.63;10269085;28;20134;-90
2022/08/04 22:14:07;;;;;;;3.22;2.10;;;;;;;20.61;62.56;96762.50;10263708;28;20407;-90
2022/08/04 22:19:27;;;;;;;2.58;2.03;;;;;;;20.60;62.76;96764.44;10278662;28;20051;-90
2022/08/04 22:24:46;;;;;;;2.28;2.08;;;;;;;20.60;62.81;96769.84;10255856;28;20063;-90
2022/08/04 22:30:07;;;;;;;2.38;2.00;;;;;;;20.60;62.74;96772.56;10258984;28;20121;-90
2022/08/04 22:35:27;;;;;;;2.35;2.10;;;;;;;20.62;62.70;96772.19;10252475;28;20062;-90
2022/08/04 22:40:47;;;;;;;2.25;2.05;;;;;;;20.61;62.80;96760.59;10263706;28;20137;-89
2022/08/04 22:46:09;;;;;;;3.13;2.00;;;;;;;20.61;62.79;96760.59;10238212;28;20105;-90
2022/08/04 22:51:29;;;;;;;2.90;2.03;;;;;;;20.61;62.73;96757.88;10251834;28;20106;-89
2022/08/04 22:56:49;;;;;;;3.08;1.80;;;;;;;20.61;62.92;96754.41;10256878;28;20134;-90
2022/08/04 23:02:09;;;;;;;2.35;1.90;;;;;;;20.62;62.75;96756.78;10265087;28;20082;-90
2022/08/04 23:07:29;;;;;;;2.40;1.95;;;;;;;20.62;62.74;96754.06;10251902;28;20063;-90
2022/08/04 23:12:48;;;;;;;2.97;2.20;;;;;;;20.62;62.74;96750.56;10238224;28;20146;-89
2022/08/04 23:18:08;;;;;;;2.17;1.88;;;;;;;20.61;62.73;96747.06;10253315;28;20051;-90
2022/08/04 23:23:28;;;;;;;2.10;1.90;;;;;;;20.61;62.76;96747.06;10266274;28;20074;-90
2022/08/04 23:28:48;;;;;;;2.00;1.80;;;;;;;20.62;62.68;96745.94;10242168;28;20504;-89
2022/08/04 23:34:08;;;;;;;3.92;1.83;;;;;;;20.61;62.70;96738.16;10256095;28;20055;-89
2022/08/04 23:39:28;;;;;;;2.33;1.92;;;;;;;20.62;62.70;96737.84;10237904;28;20062;-90
2022/08/04 23:44:48;;;;;;;2.20;2.00;;;;;;;20.62;62.87;96739.72;10226508;28;20079;-90
2022/08/04 23:50:08;;;;;;;2.03;1.83;;;;;;;20.62;62.73;96737.84;10255535;28;20486;-90
2022/08/04 23:55:28;;;;;;;2.13;1.90;;;;;;;20.62;62.74;96740.53;10255367;28;20078;-89
